Time;durP1;ratioP1;P1;durP2;ratioP2;P2;SDS_P1;SDS_P2;PMS_P1;PMS_P2;Temp;Humidity;BMP_temperature;BMP_pressure;BME280_temperature;BME280_humidity;BME280_pressure;Samples;Min_cycle;Max_cycle;Signal;HPM_P1;HPM_P2
2022/08/29 00:02:20;;;;;;;6.07;5.50;;;21.90;99.90;;;;;;5069491;28;20201;-67
2022/08/29 00:04:47;;;;;;;6.45;5.80;;;21.90;99.90;;;;;;5069813;28;20209;-67
2022/08/29 00:07:14;;;;;;;6.13;5.22;;;21.90;99.90;;;;;;5070924;28;20229;-67
2022/08/29 00:09:41;;;;;;;6.07;5.57;;;21.90;99.90;;;;;;5073712;28;20514;-69
2022/08/29 00:12:09;;;;;;;6.97;5.95;;;21.90;99.90;;;;;;5071172;28;20219;-68
2022/08/29 00:14:36;;;;;;;6.13;5.53;;;21.90;99.90;;;;;;5071488;28;20213;-68
2022/08/29 00:17:03;;;;;;;7.10;5.93;;;22.00;99.90;;;;;;5071137;28;20206;-67
2022/08/29 00:19:30;;;;;;;7.38;6.20;;;22.00;99.90;;;;;;5071774;28;20216;-67
2022/08/29 00:21:57;;;;;;;10.60;6.63;;;21.90;99.90;;;;;;5070150;28;20228;-67
2022/08/29 00:24:24;;;;;;;7.15;6.38;;;21.90;99.90;;;;;;5068832;28;20201;-68
2022/08/29 00:26:51;;;;;;;6.50;5.90;;;21.90;99.90;;;;;;5071940;28;20576;-67
2022/08/29 00:29:19;;;;;;;7.05;6.35;;;21.80;99.90;;;;;;5069824;28;20220;-68
2022/08/29 00:31:46;;;;;;;8.73;6.88;;;21.70;99.90;;;;;;5064777;28;20221;-67
2022/08/29 00:34:13;;;;;;;11.18;7.25;;;21.70;99.90;;;;;;5058285;28;20683;-67
2022/08/29 00:36:40;;;;;;;9.48;6.88;;;21.70;99.90;;;;;;5068872;28;20237;-67
2022/08/29 00:39:06;;;;;;;8.40;6.75;;;21.70;99.90;;;;;;5068094;28;20201;-66
2022/08/29 00:41:33;;;;;;;8.73;6.93;;;21.70;99.90;;;;;;5071159;28;20209;-66
2022/08/29 00:44:00;;;;;;;10.00;7.75;;;21.70;99.90;;;;;;5069569;28;20216;-67
2022/08/29 00:46:46;;;;;;;7.75;6.85;;;21.70;99.90;;;;;;5071746;28;20228;-68
2022/08/29 00:49:21;;;;;;;8.07;7.28;;;21.70;99.90;;;;;;5069652;28;20197;-67
2022/08/29 00:51:48;;;;;;;9.88;6.75;;;21.70;99.90;;;;;;5068381;28;20204;-67
2022/08/29 00:54:16;;;;;;;9.48;7.53;;;21.70;99.90;;;;;;5070007;28;20658;-67
2022/08/29 00:56:45;;;;;;;10.38;7.55;;;21.70;99.90;;;;;;5067284;28;20296;-67
2022/08/29 00:59:16;;;;;;;8.23;7.32;;;21.70;99.90;;;;;;5070328;28;20259;-67
2022/08/29 01:01:45;;;;;;;9.95;8.02;;;21.60;99.90;;;;;;5068989;28;20217;-67
2022/08/29 01:04:12;;;;;;;9.23;7.35;;;21.60;99.90;;;;;;5070820;28;20657;-68
2022/08/29 01:06:40;;;;;;;8.02;7.22;;;21.60;99.90;;;;;;5067765;28;20201;-68
2022/08/29 01:09:08;;;;;;;11.18;8.05;;;21.50;99.90;;;;;;5070048;28;20249;-67
2022/08/29 01:14:22;;;;;;;9.93;7.63;;;21.50;99.90;;;;;;5070113;28;20188;-68
2022/08/29 01:16:55;;;;;;;8.23;7.25;;;21.50;99.90;;;;;;5069371;28;20208;-68
2022/08/29 01:19:32;;;;;;;8.90;7.75;;;21.50;99.90;;;;;;5068452;28;20208;-67
2022/08/29 01:22:08;;;;;;;8.02;7.22;;;21.40;99.90;;;;;;5065265;28;20236;-68
2022/08/29 01:24:40;;;;;;;9.07;8.10;;;21.40;99.90;;;;;;5065797;28;20197;-67
2022/08/29 01:27:08;;;;;;;11.02;7.75;;;21.40;99.90;;;;;;5064691;28;20662;-66
2022/08/29 01:29:35;;;;;;;9.63;7.70;;;21.30;99.90;;;;;;5067174;28;20201;-67
2022/08/29 01:32:03;;;;;;;8.88;7.97;;;21.30;99.90;;;;;;5070092;28;20201;-68
2022/08/29 01:34:29;;;;;;;11.15;9.50;;;21.30;99.90;;;;;;5068829;28;20558;-68
2022/08/29 01:36:58;;;;;;;11.52;8.48;;;21.20;99.90;;;;;;5069284;28;20241;-67
2022/08/29 01:39:28;;;;;;;8.88;7.97;;;21.20;99.90;;;;;;5070372;28;20625;-67
2022/08/29 01:41:59;;;;;;;9.98;8.38;;;21.20;99.90;;;;;;5070590;28;20212;-67
2022/08/29 01:44:27;;;;;;;10.43;8.35;;;21.20;99.90;;;;;;5065637;28;20289;-67
2022/08/29 01:46:58;;;;;;;10.85;8.25;;;21.10;99.90;;;;;;5070821;28;20220;-68
2022/08/29 01:49:25;;;;;;;9.68;7.95;;;21.20;99.90;;;;;;5070178;28;20211;-67
2022/08/29 01:51:52;;;;;;;10.15;9.05;;;21.30;99.90;;;;;;5070495;28;20231;-67
2022/08/29 01:54:21;;;;;;;9.75;8.75;;;21.30;99.90;;;;;;5067028;28;20209;-67
2022/08/29 01:56:50;;;;;;;12.43;10.00;;;21.40;99.90;;;;;;5071086;28;20236;-67
2022/08/29 01:59:21;;;;;;;10.07;9.07;;;21.40;99.90;;;;;;5070822;28;20237;-67
2022/08/29 02:01:53;;;;;;;11.27;10.15;;;21.40;99.90;;;;;;5069934;28;20209;-67
2022/08/29 02:04:21;;;;;;;11.43;10.15;;;21.50;99.90;;;;;;5067654;28;20224;-67
2022/08/29 02:06:48;;;;;;;15.80;10.43;;;21.40;99.90;;;;;;5068916;28;20433;-67
2022/08/29 02:09:15;;;;;;;12.23;10.93;;;21.50;99.90;;;;;;5068866;28;20317;-67
2022/08/29 02:11:41;;;;;;;11.02;10.02;;;21.40;99.90;;;;;;5062558;28;20213;-69
2022/08/29 02:14:08;;;;;;;12.75;10.75;;;21.40;99.90;;;;;;5056703;28;20213;-68
2022/08/29 02:16:37;;;;;;;15.23;12.15;;;21.40;99.90;;;;;;5069382;28;20205;-67
2022/08/29 02:19:04;;;;;;;15.68;14.10;;;21.40;99.90;;;;;;5068303;28;20205;-67
2022/08/29 02:21:31;;;;;;;17.45;15.50;;;21.40;99.90;;;;;;5069192;28;20220;-67
2022/08/29 02:24:01;;;;;;;18.70;14.98;;;21.30;99.90;;;;;;5067619;28;20672;-67
2022/08/29 02:26:28;;;;;;;18.00;15.00;;;21.30;99.90;;;;;;5060448;28;20293;-67
2022/08/29 02:28:56;;;;;;;21.60;15.25;;;21.30;99.90;;;;;;5063939;28;20772;-67
2022/08/29 02:31:23;;;;;;;20.13;16.02;;;21.30;99.90;;;;;;5056866;28;20300;-67
2022/08/29 02:33:53;;;;;;;18.15;15.95;;;21.20;99.90;;;;;;5067944;28;20553;-68
2022/08/29 02:36:21;;;;;;;19.52;17.27;;;21.20;99.90;;;;;;5066765;28;20233;-66
2022/08/29 02:38:48;;;;;;;19.38;16.92;;;21.20;99.90;;;;;;5067269;28;20212;-67
2022/08/29 02:41:15;;;;;;;22.25;19.23;;;21.20;99.90;;;;;;5069061;28;20209;-67
2022/08/29 02:43:42;;;;;;;18.25;16.30;;;21.20;99.90;;;;;;5068124;28;20201;-67
2022/08/29 02:46:14;;;;;;;20.77;17.25;;;21.10;99.90;;;;;;5068763;28;20212;-67
2022/08/29 02:48:42;;;;;;;18.98;16.27;;;21.10;99.90;;;;;;5067988;28;20216;-67
2022/08/29 02:51:11;;;;;;;21.80;17.38;;;21.10;99.90;;;;;;5067944;28;20207;-67
2022/08/29 02:53:38;;;;;;;19.40;16.92;;;21.10;99.90;;;;;;5066740;28;20209;-67
2022/08/29 02:56:05;;;;;;;19.30;15.48;;;21.10;99.90;;;;;;5067000;28;20270;-68
2022/08/29 02:58:33;;;;;;;17.90;15.73;;;21.10;99.90;;;;;;5065608;28;20213;-67
2022/08/29 03:00:59;;;;;;;19.70;16.67;;;21.10;99.90;;;;;;5070885;28;20665;-68
2022/08/29 03:03:27;;;;;;;19.00;15.63;;;21.10;99.90;;;;;;5071246;28;20654;-67
2022/08/29 03:05:55;;;;;;;19.50;17.40;;;21.10;99.90;;;;;;5072236;28;20205;-67
2022/08/29 03:08:23;;;;;;;19.10;16.55;;;21.00;99.90;;;;;;5072161;28;20303;-67
2022/08/29 03:10:49;;;;;;;19.20;17.20;;;21.00;99.90;;;;;;5071719;28;20215;-68
2022/08/29 03:13:19;;;;;;;19.33;17.23;;;21.00;99.90;;;;;;5069912;28;20213;-68
2022/08/29 03:15:46;;;;;;;18.50;16.25;;;21.10;99.90;;;;;;5072450;28;20208;-68
2022/08/29 03:18:14;;;;;;;18.48;16.58;;;21.10;99.90;;;;;;5073295;28;20205;-68
2022/08/29 03:20:42;;;;;;;20.90;17.45;;;21.10;99.90;;;;;;5070532;28;20536;-67
2022/08/29 03:23:09;;;;;;;21.42;19.17;;;21.10;99.90;;;;;;5070953;28;20233;-67
2022/08/29 03:25:38;;;;;;;23.50;19.65;;;21.10;99.90;;;;;;5068511;28;20209;-67
2022/08/29 03:28:04;;;;;;;24.00;19.60;;;21.10;99.90;;;;;;5070142;28;20225;-67
2022/08/29 03:30:31;;;;;;;24.85;20.38;;;21.10;99.90;;;;;;5073310;28;20212;-67
2022/08/29 03:32:58;;;;;;;24.60;20.52;;;21.10;99.90;;;;;;5058546;28;20209;-67
2022/08/29 03:35:25;;;;;;;23.52;20.75;;;21.10;99.90;;;;;;5071859;28;20240;-68
2022/08/29 03:37:55;;;;;;;24.92;21.35;;;21.10;99.90;;;;;;5074016;28;20215;-68
2022/08/29 03:40:22;;;;;;;23.52;21.02;;;21.10;99.90;;;;;;5062168;28;20201;-68
2022/08/29 03:42:50;;;;;;;28.10;21.77;;;21.10;99.90;;;;;;5062368;28;20220;-67
2022/08/29 03:45:19;;;;;;;25.80;20.63;;;21.10;99.90;;;;;;5070890;28;20216;-67
2022/08/29 03:47:46;;;;;;;22.42;19.70;;;21.10;99.90;;;;;;5072898;28;20638;-67
2022/08/29 03:50:14;;;;;;;24.98;21.10;;;21.20;99.90;;;;;;5071963;28;20197;-68
2022/08/29 03:52:42;;;;;;;22.50;20.10;;;21.20;99.90;;;;;;5070180;28;20209;-68
2022/08/29 03:55:10;;;;;;;22.30;19.45;;;21.20;99.90;;;;;;5060853;28;20658;-67
2022/08/29 03:57:37;;;;;;;21.67;19.35;;;21.20;99.90;;;;;;5072650;28;20609;-67
2022/08/29 04:00:10;;;;;;;22.50;19.45;;;21.20;99.90;;;;;;5072800;28;20541;-68
2022/08/29 04:02:37;;;;;;;23.88;18.92;;;21.30;99.90;;;;;;5072539;28;20252;-68
2022/08/29 04:05:08;;;;;;;21.52;17.90;;;21.20;99.90;;;;;;5071595;28;20205;-68
2022/08/29 04:07:45;;;;;;;21.27;18.00;;;21.30;99.90;;;;;;5059598;28;20298;-67
2022/08/29 04:10:15;;;;;;;19.05;17.05;;;21.30;99.90;;;;;;5070044;28;20243;-67
2022/08/29 04:12:42;;;;;;;16.73;15.02;;;21.30;99.90;;;;;;5069907;28;20205;-68
2022/08/29 04:15:11;;;;;;;16.50;14.70;;;21.30;99.90;;;;;;5069253;28;20658;-68
2022/08/29 04:17:38;;;;;;;18.85;15.68;;;21.20;99.90;;;;;;5072284;28;20214;-67
2022/08/29 04:20:07;;;;;;;17.17;14.95;;;21.20;99.90;;;;;;5070082;28;20629;-67
2022/08/29 04:22:36;;;;;;;17.75;13.73;;;21.20;99.90;;;;;;5072534;28;20220;-67
2022/08/29 04:25:04;;;;;;;16.13;13.23;;;21.20;99.90;;;;;;5071441;28;20298;-67
2022/08/29 04:27:31;;;;;;;16.65;12.52;;;21.20;99.90;;;;;;5072530;28;20209;-67
2022/08/29 04:29:58;;;;;;;13.20;11.82;;;21.20;99.90;;;;;;5067749;28;20229;-67
2022/08/29 04:32:26;;;;;;;13.27;11.88;;;20.90;99.90;;;;;;5068606;28;20216;-68
2022/08/29 04:34:56;;;;;;;15.18;12.57;;;21.20;99.90;;;;;;5069737;28;20208;-68
2022/08/29 04:37:24;;;;;;;16.63;13.30;;;21.30;99.90;;;;;;5071543;28;20616;-68
2022/08/29 04:39:51;;;;;;;15.65;12.95;;;21.30;99.90;;;;;;5070357;28;20267;-68
2022/08/29 04:42:18;;;;;;;14.20;11.88;;;21.20;99.90;;;;;;5068987;28;20198;-67
2022/08/29 04:44:45;;;;;;;15.45;12.50;;;21.30;99.90;;;;;;5065402;28;20599;-67
2022/08/29 04:47:12;;;;;;;14.70;12.20;;;21.30;99.90;;;;;;5071493;28;20213;-67
2022/08/29 04:49:41;;;;;;;12.70;11.50;;;21.30;99.90;;;;;;5068997;28;20682;-68
2022/08/29 04:52:08;;;;;;;11.77;10.63;;;21.20;99.90;;;;;;5059237;28;20288;-68
2022/08/29 04:54:34;;;;;;;12.82;9.93;;;21.20;99.90;;;;;;5070169;28;20217;-68
2022/08/29 04:57:02;;;;;;;10.93;9.32;;;21.30;99.90;;;;;;5070830;28;20204;-67
2022/08/29 04:59:29;;;;;;;11.07;8.60;;;21.20;99.90;;;;;;5069037;28;20221;-69
2022/08/29 05:01:57;;;;;;;9.45;8.32;;;21.20;99.90;;;;;;5066467;28;20209;-67
2022/08/29 05:04:24;;;;;;;11.43;8.00;;;21.20;99.90;;;;;;5055352;28;20645;-68
2022/08/29 05:06:52;;;;;;;7.88;7.07;;;21.20;99.90;;;;;;5069836;28;20206;-68
2022/08/29 05:09:19;;;;;;;7.63;6.85;;;21.10;99.90;;;;;;5069272;28;20408;-67
2022/08/29 05:11:45;;;;;;;8.25;6.55;;;21.10;99.90;;;;;;5067863;28;20578;-67
2022/08/29 05:14:12;;;;;;;7.35;6.18;;;21.00;99.90;;;;;;5067563;28;20563;-68
2022/08/29 05:16:40;;;;;;;6.60;5.65;;;21.10;99.90;;;;;;5069707;28;20207;-67
2022/08/29 05:19:08;;;;;;;5.10;4.70;;;21.10;99.90;;;;;;5067080;28;20277;-67
2022/08/29 05:21:38;;;;;;;4.22;3.75;;;21.00;99.90;;;;;;5064126;28;20225;-68
2022/08/29 05:24:08;;;;;;;5.05;3.53;;;21.00;99.90;;;;;;5066943;28;20638;-67
2022/08/29 05:26:37;;;;;;;3.35;2.90;;;20.90;99.90;;;;;;5071296;28;20653;-68
2022/08/29 05:29:05;;;;;;;3.15;2.85;;;20.90;99.90;;;;;;5070008;28;20232;-68
2022/08/29 05:31:32;;;;;;;2.67;2.47;;;20.90;99.90;;;;;;5069710;28;20201;-68
2022/08/29 05:33:59;;;;;;;3.47;2.40;;;20.90;99.90;;;;;;5063511;28;20221;-67
2022/08/29 05:36:26;;;;;;;3.40;3.10;;;20.90;99.90;;;;;;5069984;28;20233;-68
2022/08/29 05:38:53;;;;;;;3.75;3.45;;;20.90;99.90;;;;;;5062514;28;20202;-68
2022/08/29 05:41:21;;;;;;;3.80;3.40;;;20.90;99.90;;;;;;5066019;28;20221;-67
2022/08/29 05:43:48;;;;;;;4.95;3.00;;;20.90;99.90;;;;;;5068252;28;20206;-68
2022/08/29 05:46:15;;;;;;;3.65;2.92;;;20.90;99.90;;;;;;5068765;28;20213;-69
2022/08/29 05:48:42;;;;;;;3.58;3.05;;;20.80;99.90;;;;;;5070952;28;20205;-70
2022/08/29 05:51:16;;;;;;;4.13;3.10;;;20.80;99.90;;;;;;5068802;28;20267;-70
2022/08/29 05:53:43;;;;;;;4.20;3.08;;;20.80;99.90;;;;;;5062818;28;20981;-71
2022/08/29 05:56:09;;;;;;;3.83;3.53;;;20.80;99.90;;;;;;5071665;28;20211;-70
2022/08/29 05:58:38;;;;;;;5.55;3.58;;;20.80;99.90;;;;;;5070630;28;20688;-70
2022/08/29 06:01:05;;;;;;;4.28;3.47;;;20.80;99.90;;;;;;5069352;28;20209;-70
2022/08/29 06:03:32;;;;;;;4.10;3.70;;;20.80;99.90;;;;;;5065943;28;20237;-69
2022/08/29 06:05:58;;;;;;;4.18;3.83;;;20.80;99.90;;;;;;5057603;28;20212;-69
2022/08/29 06:08:25;;;;;;;5.13;4.00;;;20.80;99.90;;;;;;5066991;28;20209;-69
2022/08/29 06:10:52;;;;;;;4.38;3.40;;;20.80;99.90;;;;;;5067584;28;20233;-69
2022/08/29 06:13:19;;;;;;;4.20;3.80;;;20.90;99.90;;;;;;5067119;28;20316;-71
2022/08/29 06:15:47;;;;;;;5.60;3.75;;;21.00;99.90;;;;;;5067357;28;20605;-67
2022/08/29 06:18:13;;;;;;;4.57;4.15;;;21.00;99.90;;;;;;5067214;28;20427;-69
2022/08/29 06:20:41;;;;;;;5.82;4.10;;;21.00;99.90;;;;;;5063798;28;20438;-69
2022/08/29 06:23:08;;;;;;;5.75;4.40;;;21.10;99.90;;;;;;5063287;28;20516;-69
2022/08/29 06:25:36;;;;;;;4.53;4.13;;;21.10;99.90;;;;;;5070603;28;20201;-68
2022/08/29 06:28:03;;;;;;;5.60;4.53;;;21.10;99.90;;;;;;5070800;28;20201;-71
2022/08/29 06:30:32;;;;;;;4.47;4.07;;;21.20;99.90;;;;;;5063581;28;20233;-70
2022/08/29 06:33:02;;;;;;;5.53;4.45;;;21.20;99.90;;;;;;5068300;28;20215;-67
2022/08/29 06:35:28;;;;;;;5.10;4.43;;;21.30;99.90;;;;;;5066157;28;20225;-70
2022/08/29 06:37:55;;;;;;;5.10;4.65;;;21.40;99.90;;;;;;5068401;28;20201;-70
2022/08/29 06:40:22;;;;;;;5.05;4.55;;;21.40;99.90;;;;;;5068672;28;20240;-70
2022/08/29 06:42:49;;;;;;;5.30;4.63;;;21.40;99.90;;;;;;5060447;28;20274;-70
2022/08/29 06:45:16;;;;;;;6.13;4.90;;;21.40;99.90;;;;;;5062445;28;20603;-68
2022/08/29 06:47:46;;;;;;;5.03;4.57;;;21.50;99.90;;;;;;5061965;28;20598;-70
2022/08/29 06:50:14;;;;;;;5.65;5.10;;;21.50;99.90;;;;;;5054014;28;20685;-68
2022/08/29 06:52:41;;;;;;;5.55;5.05;;;21.50;99.90;;;;;;5056142;28;20209;-69
2022/08/29 06:55:10;;;;;;;6.80;6.05;;;21.50;99.90;;;;;;5060693;28;20945;-67
2022/08/29 06:57:41;;;;;;;5.47;4.85;;;21.50;99.90;;;;;;5060281;28;20658;-68
2022/08/29 07:00:09;;;;;;;6.40;5.78;;;21.50;99.90;;;;;;5068060;28;20205;-69
2022/08/29 07:02:36;;;;;;;6.50;5.85;;;21.50;99.90;;;;;;5071030;28;20270;-68
2022/08/29 07:05:04;;;;;;;6.68;6.03;;;21.50;99.90;;;;;;5070788;28;20209;-69
2022/08/29 07:07:32;;;;;;;6.78;6.00;;;21.50;99.90;;;;;;5068245;28;20684;-70
2022/08/29 07:10:00;;;;;;;7.88;6.05;;;21.50;99.90;;;;;;5068000;28;20221;-70
2022/08/29 07:12:27;;;;;;;6.85;6.15;;;21.50;99.90;;;;;;5062327;28;20219;-70
2022/08/29 07:14:54;;;;;;;10.45;6.20;;;21.50;99.90;;;;;;5064633;28;20213;-70
2022/08/29 07:17:21;;;;;;;7.88;5.38;;;21.50;99.90;;;;;;5069221;28;20228;-69
2022/08/29 07:19:48;;;;;;;7.45;6.38;;;21.60;99.90;;;;;;5066820;28;20716;-69
2022/08/29 07:22:15;;;;;;;7.32;6.18;;;21.60;99.90;;;;;;5067965;28;20232;-68
2022/08/29 07:24:43;;;;;;;8.88;6.65;;;21.70;99.90;;;;;;5068228;28;20487;-68
2022/08/29 07:27:11;;;;;;;6.97;6.28;;;21.70;99.90;;;;;;5067417;28;20216;-67
2022/08/29 07:29:39;;;;;;;7.35;6.65;;;21.60;99.90;;;;;;5066966;28;20308;-68
2022/08/29 07:32:08;;;;;;;7.65;6.40;;;21.70;99.90;;;;;;5069612;28;20216;-69
2022/08/29 07:34:35;;;;;;;9.65;6.57;;;21.60;99.90;;;;;;5066509;28;20561;-68
2022/08/29 07:37:03;;;;;;;7.93;6.15;;;21.60;99.90;;;;;;5066009;28;20302;-69
2022/08/29 07:39:30;;;;;;;7.75;6.43;;;21.70;99.90;;;;;;5064710;28;20225;-68
2022/08/29 07:41:59;;;;;;;6.85;6.15;;;21.80;99.90;;;;;;5066978;28;20213;-68
2022/08/29 07:44:26;;;;;;;7.50;5.82;;;21.80;99.90;;;;;;5067168;28;20197;-67
2022/08/29 07:46:56;;;;;;;7.75;6.05;;;21.80;99.90;;;;;;5068392;28;20218;-67
2022/08/29 07:49:23;;;;;;;8.30;6.60;;;21.80;99.90;;;;;;5070235;28;20312;-67
2022/08/29 07:51:51;;;;;;;6.40;5.80;;;21.70;99.90;;;;;;5070341;28;20225;-67
2022/08/29 07:54:18;;;;;;;7.47;5.40;;;21.60;99.90;;;;;;5072116;28;20213;-68
2022/08/29 07:56:46;;;;;;;7.72;5.50;;;21.50;99.90;;;;;;5068578;28;20205;-68
2022/08/29 07:59:15;;;;;;;5.75;5.25;;;21.40;99.90;;;;;;5065910;28;20287;-68
2022/08/29 08:01:42;;;;;;;6.35;5.25;;;21.40;99.90;;;;;;5064531;28;20206;-69
2022/08/29 08:04:09;;;;;;;6.72;5.30;;;21.50;99.90;;;;;;5060803;28;20212;-69
2022/08/29 08:06:37;;;;;;;6.57;5.43;;;21.70;99.90;;;;;;5067141;28;20627;-69
2022/08/29 08:09:04;;;;;;;6.45;5.68;;;22.00;99.90;;;;;;5059899;28;20217;-70
2022/08/29 08:11:31;;;;;;;7.30;5.38;;;22.30;99.90;;;;;;5069569;28;20316;-67
2022/08/29 08:13:58;;;;;;;6.10;4.93;;;22.50;99.90;;;;;;5060989;28;20209;-69
2022/08/29 08:16:30;;;;;;;6.57;5.20;;;22.60;99.90;;;;;;5060203;28;20571;-69
2022/08/29 08:18:57;;;;;;;7.28;4.97;;;22.80;99.90;;;;;;5066129;28;20663;-70
2022/08/29 08:21:25;;;;;;;7.70;5.18;;;22.90;99.90;;;;;;5071969;28;20197;-69
2022/08/29 08:23:52;;;;;;;5.93;4.53;;;22.80;99.90;;;;;;5071151;28;20236;-67
2022/08/29 08:26:19;;;;;;;5.80;4.88;;;22.80;99.90;;;;;;5058461;28;20198;-69
2022/08/29 08:28:47;;;;;;;5.50;4.43;;;22.80;99.90;;;;;;5070319;28;20209;-68
2022/08/29 08:31:15;;;;;;;8.23;4.40;;;22.70;99.90;;;;;;5059064;28;20225;-68
2022/08/29 08:33:45;;;;;;;6.13;4.07;;;22.60;99.90;;;;;;5070872;28;20205;-69
2022/08/29 08:36:16;;;;;;;5.55;4.03;;;22.50;99.90;;;;;;5069156;28;20236;-68
2022/08/29 08:38:43;;;;;;;6.22;4.90;;;22.40;99.90;;;;;;5063819;28;20206;-69
2022/08/29 08:41:22;;;;;;;7.30;5.03;;;22.20;99.90;;;;;;5068565;28;20205;-69
2022/08/29 08:43:52;;;;;;;7.13;5.10;;;22.10;99.90;;;;;;5070214;28;20212;-68
2022/08/29 08:46:23;;;;;;;6.22;5.20;;;22.20;99.90;;;;;;5062713;28;20217;-68
2022/08/29 08:48:55;;;;;;;11.98;7.38;;;22.20;99.90;;;;;;5062355;28;20275;-68
2022/08/29 08:51:26;;;;;;;9.27;5.40;;;22.10;99.90;;;;;;5064400;28;20247;-69
2022/08/29 08:53:56;;;;;;;9.73;5.00;;;22.20;99.90;;;;;;5070238;28;20693;-69
2022/08/29 08:56:32;;;;;;;6.57;5.20;;;22.10;99.90;;;;;;5068832;28;20201;-69
2022/08/29 08:59:06;;;;;;;10.30;5.65;;;22.10;99.90;;;;;;5069741;28;20204;-68
2022/08/29 09:01:37;;;;;;;8.73;5.13;;;22.00;99.90;;;;;;5061419;28;20586;-69
2022/08/29 09:04:19;;;;;;;7.10;6.00;;;22.00;99.90;;;;;;5063973;28;20749;-69
2022/08/29 09:06:55;;;;;;;10.05;5.90;;;22.00;99.90;;;;;;5066347;28;20197;-68
2022/08/29 09:09:33;;;;;;;7.00;6.30;;;22.00;99.90;;;;;;5068569;28;20590;-69
2022/08/29 09:12:11;;;;;;;8.77;7.22;;;22.10;99.90;;;;;;5069300;28;20721;-68
2022/08/29 09:14:53;;;;;;;7.85;6.50;;;22.30;99.90;;;;;;5063852;28;20201;-68
2022/08/29 09:17:23;;;;;;;6.93;6.22;;;22.60;99.90;;;;;;5067163;28;20197;-69
2022/08/29 09:19:51;;;;;;;10.82;7.05;;;23.10;99.90;;;;;;5062843;28;20702;-68
2022/08/29 09:22:25;;;;;;;7.53;6.32;;;23.60;99.90;;;;;;5054718;28;20233;-69
2022/08/29 09:24:57;;;;;;;7.13;6.10;;;24.00;99.90;;;;;;5053316;28;20297;-69
2022/08/29 09:27:27;;;;;;;5.88;5.32;;;24.40;99.90;;;;;;5059129;28;20262;-71
2022/08/29 09:30:04;;;;;;;6.53;5.47;;;24.70;99.90;;;;;;5062210;28;20233;-71
2022/08/29 09:32:31;;;;;;;5.65;4.68;;;25.00;99.90;;;;;;5057582;28;20566;-70
2022/08/29 09:34:59;;;;;;;6.78;5.03;;;25.10;99.90;;;;;;5060345;28;20615;-72
2022/08/29 09:37:30;;;;;;;6.32;4.40;;;25.00;99.90;;;;;;5057308;28;20205;-70
2022/08/29 09:40:00;;;;;;;6.32;4.35;;;25.10;99.90;;;;;;5064639;28;20211;-68
2022/08/29 09:42:34;;;;;;;7.50;4.57;;;24.90;99.90;;;;;;5067562;28;20205;-68
2022/08/29 09:45:07;;;;;;;6.20;4.45;;;24.80;99.90;;;;;;5067766;28;20561;-68
2022/08/29 09:47:34;;;;;;;5.40;4.32;;;24.80;99.90;;;;;;5065720;28;20208;-69
2022/08/29 09:50:12;;;;;;;8.95;5.13;;;25.00;99.90;;;;;;5066663;28;20739;-68
2022/08/29 09:52:41;;;;;;;5.40;3.75;;;25.40;99.90;;;;;;5063724;28;20208;-67
2022/08/29 09:55:20;;;;;;;6.20;3.95;;;25.70;99.90;;;;;;5066319;28;20209;-68
2022/08/29 09:57:51;;;;;;;3.40;3.10;;;26.00;99.90;;;;;;5069741;28;20220;-70
2022/08/29 10:00:26;;;;;;;6.03;3.85;;;26.20;99.90;;;;;;5069443;28;20197;-70
2022/08/29 10:02:54;;;;;;;7.13;3.45;;;26.50;99.90;;;;;;5065616;28;20228;-67
2022/08/29 10:05:40;;;;;;;6.75;4.65;;;26.50;99.90;;;;;;5063619;28;20205;-68
2022/08/29 10:08:25;;;;;;;5.07;3.60;;;26.30;99.90;;;;;;5067820;28;20205;-68
2022/08/29 10:10:55;;;;;;;4.85;3.30;;;26.00;99.90;;;;;;5055496;28;20218;-68
2022/08/29 10:13:25;;;;;;;5.93;3.50;;;25.70;99.90;;;;;;5060918;28;20300;-70
2022/08/29 10:15:59;;;;;;;5.60;3.33;;;25.70;99.90;;;;;;5062996;28;20634;-70
2022/08/29 10:18:37;;;;;;;6.47;3.10;;;25.70;99.90;;;;;;5058015;28;20900;-66
2022/08/29 10:21:16;;;;;;;4.93;3.15;;;25.70;99.90;;;;;;5066990;28;20205;-66
2022/08/29 10:23:58;;;;;;;3.30;2.50;;;25.80;99.90;;;;;;5065973;28;20193;-67
2022/08/29 10:26:33;;;;;;;4.68;2.53;;;25.90;99.90;;;;;;5066075;28;20563;-68
2022/08/29 10:29:10;;;;;;;6.00;2.65;;;26.00;99.90;;;;;;5065312;28;20208;-66
2022/08/29 10:31:42;;;;;;;5.43;2.78;;;26.40;99.90;;;;;;5061399;28;20573;-66
2022/08/29 10:34:23;;;;;;;3.10;2.10;;;26.80;99.00;;;;;;5063796;28;20208;-68
2022/08/29 10:37:00;;;;;;;3.22;2.35;;;27.30;97.40;;;;;;5063822;28;20236;-68
2022/08/29 10:39:38;;;;;;;4.15;2.22;;;27.40;96.00;;;;;;5054041;28;20228;-68
2022/08/29 10:42:09;;;;;;;6.72;2.28;;;27.60;95.30;;;;;;5063704;28;20597;-67
2022/08/29 10:44:45;;;;;;;3.60;1.85;;;27.50;95.10;;;;;;5067197;28;20205;-67
2022/08/29 10:47:25;;;;;;;3.95;2.13;;;27.60;94.10;;;;;;5060083;28;20669;-68
2022/08/29 10:50:08;;;;;;;2.50;1.92;;;27.70;93.60;;;;;;5068595;28;20570;-71
2022/08/29 10:52:47;;;;;;;4.18;2.20;;;27.80;92.80;;;;;;5070245;28;20193;-70
2022/08/29 10:55:22;;;;;;;4.80;2.55;;;27.80;92.20;;;;;;5060632;28;20212;-71
2022/08/29 10:58:01;;;;;;;2.13;1.75;;;27.70;91.90;;;;;;5061391;28;20221;-68
2022/08/29 11:00:37;;;;;;;3.15;1.85;;;27.70;91.90;;;;;;5053561;28;20197;-70
2022/08/29 11:03:15;;;;;;;3.08;1.90;;;27.60;91.80;;;;;;5064267;28;20209;-71
2022/08/29 11:05:49;;;;;;;3.50;2.10;;;27.50;91.70;;;;;;5056679;28;20621;-69
2022/08/29 11:08:21;;;;;;;5.10;2.10;;;27.70;91.90;;;;;;5067417;28;20614;-70
2022/08/29 11:10:52;;;;;;;2.03;1.75;;;28.10;91.40;;;;;;5068746;28;20807;-69
2022/08/29 11:13:24;;;;;;;2.95;2.20;;;28.40;90.60;;;;;;5067938;28;20732;-69
2022/08/29 11:16:02;;;;;;;3.42;1.92;;;28.90;88.10;;;;;;5069705;28;20206;-70
2022/08/29 11:18:36;;;;;;;2.47;2.03;;;29.30;85.30;;;;;;5064393;28;20225;-75
2022/08/29 11:21:13;;;;;;;4.13;1.83;;;29.60;82.80;;;;;;5064745;28;20678;-69
2022/08/29 11:23:43;;;;;;;3.28;2.00;;;29.70;82.10;;;;;;5066404;28;20363;-68
2022/08/29 11:26:20;;;;;;;2.70;1.70;;;29.70;77.80;;;;;;5071587;28;20209;-68
2022/08/29 11:28:56;;;;;;;4.10;1.85;;;29.80;76.30;;;;;;5071694;28;23282;-70
2022/08/29 11:31:39;;;;;;;2.63;1.90;;;30.00;75.20;;;;;;5065405;28;20618;-70
2022/08/29 11:34:19;;;;;;;3.95;2.00;;;30.30;73.80;;;;;;5065058;28;20216;-69
2022/08/29 11:37:07;;;;;;;4.82;2.30;;;30.40;72.50;;;;;;5073931;28;20240;-70
2022/08/29 11:39:50;;;;;;;3.25;2.10;;;30.60;71.90;;;;;;5072360;28;20209;-68
2022/08/29 11:42:19;;;;;;;3.30;1.80;;;30.80;71.00;;;;;;5062917;28;20214;-67
2022/08/29 11:44:50;;;;;;;2.20;1.70;;;30.80;69.20;;;;;;5065806;28;20526;-66
2022/08/29 11:47:38;;;;;;;2.33;2.00;;;30.70;68.60;;;;;;5067478;28;20390;-68
2022/08/29 11:50:22;;;;;;;2.90;2.00;;;30.50;67.40;;;;;;5069538;28;20205;-65
2022/08/29 11:52:54;;;;;;;3.20;2.08;;;30.30;67.80;;;;;;5063327;28;20225;-67
2022/08/29 11:55:32;;;;;;;2.25;1.95;;;30.10;68.60;;;;;;5062196;28;20198;-66
2022/08/29 11:58:02;;;;;;;6.05;2.08;;;30.10;68.90;;;;;;5070484;28;20204;-67
2022/08/29 12:00:45;;;;;;;2.67;1.83;;;30.10;68.80;;;;;;5063082;28;20207;-69
2022/08/29 12:03:52;;;;;;;2.25;1.65;;;30.20;68.50;;;;;;5063363;28;20649;-66
2022/08/29 12:06:37;;;;;;;2.45;2.00;;;30.10;66.60;;;;;;5068942;28;20251;-66
2022/08/29 12:09:43;;;;;;;3.00;2.50;;;30.10;66.50;;;;;;5070584;28;20243;-67
2022/08/29 12:12:44;;;;;;;3.30;1.98;;;30.10;65.70;;;;;;5063942;28;20213;-68
2022/08/29 12:15:59;;;;;;;1.83;1.70;;;30.10;65.70;;;;;;5060525;28;20198;-68
2022/08/29 12:18:45;;;;;;;6.88;2.13;;;30.10;66.20;;;;;;5072732;28;20201;-68
2022/08/29 12:21:46;;;;;;;2.20;1.75;;;30.10;66.30;;;;;;5062806;28;20197;-71
2022/08/29 12:24:41;;;;;;;2.97;1.92;;;30.20;66.00;;;;;;5058706;28;20284;-67
2022/08/29 12:27:59;;;;;;;2.55;1.77;;;30.20;65.10;;;;;;5062737;28;20277;-67
2022/08/29 12:30:29;;;;;;;3.92;2.00;;;30.20;65.20;;;;;;5064214;28;20205;-67
2022/08/29 12:33:07;;;;;;;4.50;2.30;;;30.10;65.00;;;;;;5061907;28;20202;-68
2022/08/29 12:36:04;;;;;;;2.92;1.83;;;30.10;64.70;;;;;;5053561;28;20242;-68
2022/08/29 12:38:48;;;;;;;2.90;1.88;;;30.10;62.50;;;;;;5083429;28;20206;-68
2022/08/29 12:41:41;;;;;;;5.55;1.85;;;29.90;62.30;;;;;;5075303;28;20202;-69
2022/08/29 12:44:11;;;;;;;3.05;1.90;;;29.60;62.00;;;;;;5073207;28;20548;-67
2022/08/29 12:46:42;;;;;;;3.13;2.00;;;29.30;62.70;;;;;;5069308;28;20197;-67
2022/08/29 12:49:19;;;;;;;4.10;1.70;;;29.20;63.70;;;;;;5071933;28;20205;-69
2022/08/29 12:51:50;;;;;;;2.10;1.80;;;29.30;63.70;;;;;;5064482;28;20217;-67
2022/08/29 12:54:30;;;;;;;2.03;1.83;;;29.30;63.30;;;;;;5066281;28;20970;-67
2022/08/29 12:56:56;;;;;;;2.22;1.98;;;29.10;63.20;;;;;;5065077;28;20338;-68
2022/08/29 12:59:24;;;;;;;2.47;1.80;;;28.90;64.20;;;;;;5068479;28;20209;-68
2022/08/29 13:01:54;;;;;;;3.25;1.85;;;28.90;64.30;;;;;;5063604;28;20201;-67
2022/08/29 13:04:23;;;;;;;2.78;1.73;;;28.80;63.80;;;;;;5065391;28;20264;-67